Time;durP1;ratioP1;P1;durP2;ratioP2;P2;SDS_P1;SDS_P2;PMS_P1;PMS_P2;Temp;Humidity;BMP_temperature;BMP_pressure;BME280_temperature;BME280_humidity;BME280_pressure;Samples;Min_cycle;Max_cycle;Signal;HPM_P1;HPM_P2
2021/01/17 00:00:54;;;;;;;;;12.25;8.00;19.80;78.70;;;18.76;59.40;101823.66;5031553;28;8802;-53
2021/01/17 00:03:22;;;;;;;;;8.00;7.00;19.60;78.60;;;18.77;59.31;101828.00;5024410;28;8797;-51
2021/01/17 00:05:50;;;;;;;;;2.50;2.25;19.70;78.80;;;18.77;59.23;101825.31;5034708;28;9500;-51
2021/01/17 00:08:19;;;;;;;;;4.25;3.50;19.80;78.80;;;18.77;59.39;101825.31;5029569;28;8949;-55
2021/01/17 00:10:46;;;;;;;;;8.00;7.50;19.80;78.80;;;18.75;59.40;101826.41;5017739;28;9517;-53
2021/01/17 00:13:14;;;;;;;;;9.75;7.00;19.80;78.90;;;18.74;59.76;101828.25;5024342;28;8793;-54
2021/01/17 00:15:41;;;;;;;;;7.25;7.25;19.50;79.10;;;18.72;59.91;101822.16;5028414;28;8812;-52
2021/01/17 00:18:08;;;;;;;;;5.75;5.00;19.80;79.40;;;18.68;59.95;101831.44;5039047;28;8962;-51
2021/01/17 00:20:35;;;;;;;;;7.25;7.25;19.60;79.40;;;18.70;60.05;101821.47;5037686;28;9567;-51
2021/01/17 00:23:05;;;;;;;;;8.50;7.50;19.60;79.60;;;18.71;59.91;101815.13;5034649;28;8793;-53
2021/01/17 00:25:33;;;;;;;;;8.00;7.50;19.70;79.20;;;18.69;59.76;101814.38;5029658;28;8818;-50
2021/01/17 00:28:02;;;;;;;;;6.00;6.00;19.80;79.10;;;18.72;59.83;101819.47;5029024;28;8826;-52
2021/01/17 00:30:32;;;;;;;;;9.75;6.75;19.90;79.40;;;18.73;59.92;101823.88;5025070;28;8799;-53
2021/01/17 00:33:01;;;;;;;;;6.25;6.00;19.70;78.70;;;18.75;59.90;101826.41;5026904;28;8801;-49
2021/01/17 00:35:32;;;;;;;;;4.75;3.75;19.70;78.70;;;18.74;60.16;101825.56;5031643;28;8812;-51
2021/01/17 00:38:02;;;;;;;;;6.75;6.25;20.00;78.80;;;18.75;59.99;101821.97;5025606;28;8853;-51
2021/01/17 00:40:30;;;;;;;;;7.50;7.00;19.80;78.60;;;18.75;60.06;101823.72;5023177;28;8808;-53
2021/01/17 00:42:57;;;;;;;;;5.00;5.00;19.90;78.80;;;18.75;60.26;101832.66;5026005;28;8928;-47
2021/01/17 00:45:28;;;;;;;;;5.00;4.75;20.00;78.80;;;18.75;60.19;101826.41;5024391;28;8836;-53
2021/01/17 00:47:56;;;;;;;;;4.50;4.00;19.90;78.80;;;18.76;60.07;101822.81;5034814;28;8846;-52
2021/01/17 00:50:25;;;;;;;;;6.00;6.00;19.80;78.90;;;18.77;60.16;101829.84;5031665;28;8879;-49
2021/01/17 00:52:56;;;;;;;;;5.75;5.75;19.90;79.00;;;18.76;60.29;101815.63;5030341;28;8784;-52
2021/01/17 00:55:23;;;;;;;;;7.00;6.00;20.10;79.10;;;18.75;60.27;101816.59;5023851;28;8792;-49
2021/01/17 00:57:51;;;;;;;;;6.00;5.00;19.90;79.10;;;18.76;60.62;101818.28;5032774;28;8818;-48
2021/01/17 01:00:23;;;;;;;;;4.00;4.00;20.00;79.30;;;18.75;60.68;101808.56;5026420;28;8799;-51
2021/01/17 01:02:50;;;;;;;;;5.00;5.00;19.90;79.40;;;18.76;60.85;101806.75;5030393;28;8798;-52
2021/01/17 01:05:17;;;;;;;;;8.25;7.25;20.00;79.60;;;18.78;60.76;101802.94;5025011;28;8810;-55
2021/01/17 01:07:44;;;;;;;;;6.00;6.00;19.90;79.50;;;18.78;60.76;101805.63;5026892;28;8932;-52
2021/01/17 01:10:13;;;;;;;;;4.50;4.50;19.80;79.50;;;18.78;60.93;101805.63;5025945;28;8844;-52
2021/01/17 01:12:40;;;;;;;;;6.75;5.50;19.90;79.80;;;18.80;61.30;101806.34;5027651;28;9542;-52
2021/01/17 01:15:08;;;;;;;;;3.50;2.75;19.70;79.80;;;18.79;61.17;101804.63;5029026;28;8900;-52
2021/01/17 01:17:36;;;;;;;;;4.50;4.50;19.90;80.20;;;18.80;61.52;101802.81;5027464;28;10778;-55
2021/01/17 01:20:05;;;;;;;;;4.00;4.00;20.10;80.40;;;18.82;61.40;101803.53;5029441;28;8791;-55
2021/01/17 01:22:32;;;;;;;;;8.75;5.25;19.70;80.30;;;18.82;61.87;101809.72;5031591;28;8801;-53
2021/01/17 01:24:59;;;;;;;;;7.50;6.75;20.10;80.70;;;18.81;61.81;101804.53;5019259;28;8935;-53
2021/01/17 01:27:26;;;;;;;;;7.75;6.00;20.00;80.70;;;18.82;61.85;101809.72;5024798;28;9574;-50
2021/01/17 01:29:53;;;;;;;;;6.00;5.00;20.00;80.80;;;18.82;61.82;101812.41;5033092;28;8893;-54
2021/01/17 01:32:19;;;;;;;;;5.25;5.25;20.00;80.80;;;18.83;61.98;101819.47;5021756;28;8796;-52
2021/01/17 01:34:46;;;;;;;;;6.50;6.50;19.90;80.80;;;18.83;62.00;101814.13;5027796;28;8801;-52
2021/01/17 01:37:13;;;;;;;;;7.75;6.00;19.90;80.90;;;18.85;62.12;101813.97;5036529;28;8810;-50
2021/01/17 01:39:40;;;;;;;;;5.00;5.00;19.90;81.00;;;18.83;62.23;101822.16;5024718;28;8972;-49
2021/01/17 01:42:08;;;;;;;;;7.00;6.00;19.80;81.00;;;18.87;62.26;101814.69;5029598;28;8797;-53
2021/01/17 01:44:35;;;;;;;;;7.00;6.00;19.90;81.10;;;18.87;62.45;101822.72;5023136;28;8782;-50
2021/01/17 01:47:04;;;;;;;;;5.00;5.00;20.00;81.30;;;18.89;62.04;101833.31;5030123;28;8818;-53
2021/01/17 01:49:31;;;;;;;;;4.25;4.25;19.70;81.00;;;18.87;62.15;101842.31;5013706;28;8812;-51
2021/01/17 01:52:01;;;;;;;;;5.00;4.75;19.80;81.00;;;18.85;62.01;101838.94;5009501;28;8822;-50
2021/01/17 01:54:28;;;;;;;;;5.25;5.25;20.10;81.10;;;18.86;61.88;101837.09;5022731;28;8776;-51
2021/01/17 01:56:55;;;;;;;;;5.50;5.50;19.90;80.90;;;18.85;62.05;101844.28;5034907;28;9462;-49
2021/01/17 01:59:22;;;;;;;;;5.00;4.25;19.90;80.90;;;18.85;62.05;101844.28;5031743;28;8814;-53
2021/01/17 02:01:49;;;;;;;;;5.75;3.75;20.00;81.00;;;18.82;61.95;101849.88;5025302;28;8796;-50
2021/01/17 02:04:16;;;;;;;;;4.00;4.00;19.90;80.90;;;18.82;62.21;101844.53;5024516;28;8791;-49
2021/01/17 02:07:14;;;;;;;;;0.00;0.00;19.80;81.20;;;18.87;62.06;101844.16;5021141;28;8784;-50
2021/01/17 02:09:44;;;;;;;;;3.00;2.50;20.00;81.00;;;18.94;61.91;101857.88;5020418;28;9588;-51
2021/01/17 02:12:36;;;;;;;;;3.00;2.25;20.10;80.70;;;19.01;62.21;101859.06;5014771;28;8784;-50
2021/01/17 02:15:21;;;;;;;;;4.50;3.75;20.30;80.30;;;19.07;61.90;101851.34;5016853;28;8799;-47
2021/01/17 02:17:50;;;;;;;;;3.50;3.25;20.40;79.70;;;19.17;61.75;101853.25;5022533;28;8824;-49
2021/01/17 02:20:24;;;;;;;;;4.75;3.50;20.80;80.10;;;19.18;61.52;101853.09;5008242;28;8802;-48
2021/01/17 02:23:15;;;;;;;;;3.00;3.00;20.90;78.90;;;19.16;61.56;101846.16;5013747;28;8766;-53
2021/01/17 02:25:42;;;;;;;;;3.75;3.00;20.70;79.00;;;19.16;61.37;101852.41;5025040;28;8805;-52
2021/01/17 02:28:18;;;;;;;;;3.25;3.00;20.70;79.30;;;19.16;61.68;101852.41;5029677;28;8867;-51
2021/01/17 02:30:52;;;;;;;;;5.25;3.00;20.50;79.60;;;19.16;61.79;101852.41;5013967;28;8813;-53
2021/01/17 02:33:30;;;;;;;;;5.25;4.75;20.40;80.00;;;19.16;61.92;101849.72;5018257;28;8818;-50
2021/01/17 02:36:40;;;;;;;;;5.00;4.25;20.50;80.50;;;19.17;62.11;101853.25;5027359;28;8817;-48
2021/01/17 02:39:45;;;;;;;;;1.00;1.00;20.60;80.70;;;19.21;61.98;101860.88;5007095;28;8830;-50
2021/01/17 02:42:13;;;;;;;;;3.25;3.25;20.50;80.20;;;19.23;61.95;101866.09;5014924;28;8816;-50
2021/01/17 02:44:41;;;;;;;;;3.25;3.25;20.40;80.00;;;19.24;61.69;101865.97;5027855;28;8850;-53
2021/01/17 02:47:09;;;;;;;;;4.00;3.00;20.40;80.00;;;19.22;62.01;101862.56;5026579;28;8861;-50
2021/01/17 02:49:36;;;;;;;;;6.50;6.50;20.40;80.30;;;19.21;62.12;101860.00;5027787;28;8780;-49
2021/01/17 02:52:07;;;;;;;;;5.50;4.75;20.40;80.50;;;19.22;62.44;101867.09;5035896;28;8949;-53
2021/01/17 02:54:39;;;;;;;;;3.25;3.25;20.30;81.00;;;19.26;62.26;101877.41;5025238;28;8784;-51
2021/01/17 02:57:10;;;;;;;;;3.50;3.50;20.60;80.90;;;19.28;62.17;101875.47;5025771;28;8793;-50
2021/01/17 03:00:13;;;;;;;;;3.50;3.50;20.80;80.40;;;19.29;62.35;101887.88;5018227;28;8786;-51
2021/01/17 03:02:45;;;;;;;;;5.75;5.25;20.60;80.30;;;19.29;62.26;101874.47;5018344;28;9570;-53
2021/01/17 03:05:18;;;;;;;;;5.00;5.00;20.40;80.50;;;19.28;62.36;101877.28;5020508;28;8828;-51
2021/01/17 03:08:06;;;;;;;;;3.75;3.50;20.30;80.80;;;19.28;62.49;101878.16;5029800;28;9034;-48
2021/01/17 03:10:34;;;;;;;;;6.25;6.25;20.30;81.10;;;19.27;62.77;101880.94;5019221;28;8910;-57
2021/01/17 03:13:01;;;;;;;;;6.75;6.00;20.40;81.70;;;19.29;62.73;101869.13;5019552;28;8821;-54
2021/01/17 03:15:33;;;;;;;;;6.00;5.25;20.30;81.30;;;19.35;62.58;101874.94;5026046;28;8877;-48
2021/01/17 03:18:01;;;;;;;;;6.00;6.00;20.50;81.10;;;19.35;62.54;101848.97;4997871;28;8835;-51
2021/01/17 03:20:29;;;;;;;;;5.50;5.50;20.60;80.70;;;19.35;62.58;101843.63;5031072;28;8894;-51
2021/01/17 03:22:56;;;;;;;;;6.75;6.25;20.70;80.80;;;19.36;62.60;101842.66;5026745;28;8891;-53
2021/01/17 03:25:22;;;;;;;;;6.00;6.00;20.60;81.00;;;19.37;62.57;101854.22;5028967;28;8813;-50
2021/01/17 03:27:49;;;;;;;;;6.25;5.75;20.50;81.30;;;19.36;62.76;101853.38;5026561;28;8975;-48
2021/01/17 03:30:17;;;;;;;;;6.50;6.25;20.60;81.60;;;19.36;63.03;101857.84;5029697;28;8798;-51
2021/01/17 03:32:43;;;;;;;;;7.25;6.50;20.40;81.80;;;19.40;62.97;101859.31;5026609;28;8921;-53
2021/01/17 03:35:11;;;;;;;;;4.25;4.25;20.40;81.40;;;19.42;62.96;101851.97;5018692;28;8880;-53
2021/01/17 03:37:38;;;;;;;;;5.50;5.25;20.60;81.20;;;19.43;62.82;101848.31;5011317;28;8859;-54
2021/01/17 03:40:06;;;;;;;;;4.00;4.00;20.70;81.10;;;19.44;62.68;101850.03;5023746;28;8804;-52
2021/01/17 03:42:33;;;;;;;;;6.00;6.00;20.50;81.20;;;19.44;63.00;101850.03;5021607;28;8820;-50
2021/01/17 03:45:00;;;;;;;;;8.00;8.00;20.60;81.50;;;19.44;62.85;101858.91;5020521;28;8815;-56
2021/01/17 03:47:27;;;;;;;;;6.25;6.25;20.50;81.60;;;19.45;63.07;101865.09;5014799;28;8790;-56
2021/01/17 03:49:54;;;;;;;;;7.00;6.75;20.50;82.00;;;19.48;62.85;101878.25;5023036;28;8794;-53
2021/01/17 03:52:21;;;;;;;;;4.25;3.75;20.60;81.60;;;19.54;62.93;101885.75;5018885;28;8790;-49
2021/01/17 03:54:50;;;;;;;;;6.00;5.00;20.80;81.40;;;19.55;62.77;101892.81;5028097;28;8803;-52
2021/01/17 03:57:17;;;;;;;;;5.00;5.00;21.00;81.10;;;19.55;62.62;101884.78;5033290;28;8893;-50
2021/01/17 03:59:44;;;;;;;;;6.75;6.75;20.80;80.90;;;19.55;62.68;101890.13;5014413;28;9497;-50
2021/01/17 04:02:11;;;;;;;;;7.00;7.00;20.80;81.10;;;19.55;62.90;101884.78;5033283;28;8835;-53
2021/01/17 04:04:38;;;;;;;;;7.00;7.00;20.80;81.50;;;19.53;63.02;101881.38;5030009;28;8768;-49
2021/01/17 04:07:05;;;;;;;;;5.25;4.75;20.70;81.60;;;19.55;63.03;101900.84;5024607;28;8802;-52
2021/01/17 04:09:32;;;;;;;;;5.75;5.50;20.50;81.80;;;19.59;62.84;101894.25;5033002;28;8832;-49
2021/01/17 04:11:58;;;;;;;;;7.00;6.00;20.90;81.30;;;19.61;62.74;101902.16;5038969;28;8817;-48
2021/01/17 04:14:25;;;;;;;;;7.00;7.00;20.90;80.90;;;19.61;62.69;101905.66;5030862;28;8917;-52
2021/01/17 04:16:53;;;;;;;;;8.20;4.80;20.80;80.70;;;19.61;62.74;101900.31;5032363;28;8910;-49
2021/01/17 04:19:20;;;;;;;;;6.00;6.00;20.90;81.20;;;19.63;62.97;101914.44;5026671;28;8963;-52
2021/01/17 04:21:48;;;;;;;;;6.00;6.00;20.80;81.80;;;19.61;63.30;101903.00;5026818;28;8952;-48
2021/01/17 04:24:15;;;;;;;;;5.00;5.00;20.60;81.40;;;19.61;63.26;101904.81;5027533;28;8804;-47
2021/01/17 04:26:42;;;;;;;;;5.25;5.25;20.80;81.70;;;19.60;63.40;101914.69;5020201;28;8827;-49
2021/01/17 04:29:09;;;;;;;;;7.00;5.00;20.80;81.90;;;19.60;63.47;101914.69;5020601;28;8936;-50
2021/01/17 04:31:44;;;;;;;;;7.50;7.00;20.60;81.90;;;19.58;63.34;101910.47;5023690;28;8804;-48
2021/01/17 04:34:12;;;;;;;;;4.75;4.25;20.80;82.20;;;19.58;63.73;101921.19;5022228;28;8796;-50
2021/01/17 04:36:39;;;;;;;;;1.00;1.00;20.60;82.20;;;19.58;63.62;101915.81;5032819;28;8798;-48
2021/01/17 04:39:06;;;;;;;;;6.25;6.25;20.70;82.90;;;19.57;63.39;101909.63;5025541;28;8821;-51
2021/01/17 04:41:36;;;;;;;;;5.75;5.00;20.70;82.50;;;19.57;63.71;101920.34;5016542;28;8927;-49
2021/01/17 04:44:05;;;;;;;;;7.00;6.50;20.80;82.60;;;19.56;63.74;101913.25;5028076;28;8818;-50
2021/01/17 04:46:32;;;;;;;;;5.50;4.75;20.50;82.40;;;19.55;63.57;101914.25;5027547;28;9486;-49
2021/01/17 04:49:03;;;;;;;;;6.00;6.00;20.90;82.70;;;19.53;63.55;101925.09;5034109;28;8916;-48
2021/01/17 04:51:31;;;;;;;;;6.00;6.00;20.50;82.30;;;19.52;63.52;101926.09;5033419;28;8814;-49
2021/01/17 04:54:04;;;;;;;;;7.25;6.25;20.70;82.50;;;19.52;63.59;101923.41;5023872;28;8899;-48
2021/01/17 04:56:45;;;;;;;;;7.00;7.00;20.60;82.50;;;19.50;63.75;101927.19;5019965;28;8818;-50
2021/01/17 04:59:24;;;;;;;;;6.00;6.00;20.60;82.40;;;19.49;63.84;101923.69;5029782;28;8798;-50
2021/01/17 05:02:31;;;;;;;;;5.75;5.75;20.60;82.40;;;19.49;63.62;101922.84;5029142;28;9732;-51
2021/01/17 05:05:14;;;;;;;;;5.50;5.50;20.70;82.50;;;19.48;63.72;101926.47;5029919;28;9506;-49
2021/01/17 05:08:09;;;;;;;;;3.50;3.00;20.60;82.40;;;19.47;63.72;101922.09;5028819;28;8887;-51
2021/01/17 05:10:38;;;;;;;;;7.00;6.50;20.50;82.30;;;19.45;63.66;101922.22;5023054;28;8862;-51
2021/01/17 05:13:12;;;;;;;;;6.00;6.00;20.60;82.30;;;19.45;63.20;101929.44;5031932;28;8867;-51
2021/01/17 05:15:42;;;;;;;;;6.75;6.00;20.40;82.00;;;19.44;63.12;101923.22;5030695;28;8782;-48
2021/01/17 05:18:10;;;;;;;;;6.00;5.00;20.60;82.20;;;19.43;63.15;101932.22;5030397;28;8842;-50
2021/01/17 05:20:37;;;;;;;;;7.25;7.25;20.50;82.00;;;19.42;63.20;101925.19;5032651;28;8780;-49
2021/01/17 05:23:11;;;;;;;;;6.75;6.50;20.50;82.10;;;19.42;63.20;101929.69;5027786;28;8790;-53
2021/01/17 05:25:41;;;;;;;;;9.75;6.25;20.70;82.20;;;19.41;63.03;101926.16;5023234;28;8925;-50
2021/01/17 05:28:08;;;;;;;;;7.25;5.75;20.50;82.10;;;19.40;62.99;101928.97;5016245;28;8824;-51
2021/01/17 05:30:35;;;;;;;;;5.00;5.00;20.40;82.00;;;19.39;63.21;101928.13;5028410;28;8792;-54
2021/01/17 05:33:07;;;;;;;;;4.50;4.25;20.50;82.10;;;19.39;63.13;101928.13;5024180;28;8789;-51
2021/01/17 05:35:34;;;;;;;;;3.50;3.50;20.40;82.00;;;19.37;63.18;101911.31;5025271;28;8962;-50
2021/01/17 05:38:01;;;;;;;;;5.50;4.50;20.40;81.90;;;19.36;62.95;101917.69;5028785;28;9700;-53
2021/01/17 05:40:34;;;;;;;;;5.00;4.25;20.20;81.90;;;19.36;62.85;101922.16;5023097;28;8764;-51
2021/01/17 05:43:01;;;;;;;;;6.00;6.00;20.40;82.00;;;19.35;62.92;101921.31;5029623;28;8803;-52
2021/01/17 05:45:28;;;;;;;;;7.75;6.00;20.40;81.90;;;19.34;62.90;101913.44;5029816;28;8788;-50
2021/01/17 05:48:01;;;;;;;;;5.75;5.75;20.40;81.90;;;19.35;62.86;101920.47;5017359;28;8911;-51
2021/01/17 05:50:34;;;;;;;;;7.00;6.25;20.40;81.90;;;19.32;62.94;101915.38;5018633;28;8768;-51
2021/01/17 05:53:07;;;;;;;;;7.75;6.00;20.40;81.90;;;19.31;62.92;101925.25;5020514;28;8779;-47
2021/01/17 05:55:36;;;;;;;;;6.00;6.00;20.40;82.30;;;19.30;63.12;101926.22;5022633;28;8801;-51
2021/01/17 05:58:31;;;;;;;;;6.00;6.00;20.40;81.80;;;19.29;63.10;101921.84;5029050;28;8814;-52
2021/01/17 06:01:19;;;;;;;;;6.25;6.00;20.40;81.80;;;19.29;62.79;101914.66;5028461;28;8807;-48
2021/01/17 06:03:58;;;;;;;;;8.00;7.00;20.40;81.80;;;19.27;62.82;101918.44;5028191;28;8780;-52
2021/01/17 06:06:30;;;;;;;;;7.50;7.00;20.30;81.70;;;19.26;62.84;101917.59;5027476;28;8796;-51
2021/01/17 06:09:00;;;;;;;;;6.50;6.25;20.30;81.70;;;19.26;62.80;101919.44;5024804;28;8780;-52
2021/01/17 06:11:28;;;;;;;;;7.50;6.25;20.30;81.70;;;19.24;62.95;101913.34;5031241;28;9592;-47
2021/01/17 06:13:57;;;;;;;;;6.50;6.00;20.30;81.70;;;19.23;62.83;101917.88;5024934;28;8816;-48
2021/01/17 06:16:40;;;;;;;;;7.50;7.00;20.30;81.70;;;19.24;62.92;101930.28;5019561;28;8910;-48
2021/01/17 06:19:10;;;;;;;;;8.00;6.50;20.40;81.80;;;19.21;62.73;101925.19;5021605;28;8840;-51
2021/01/17 06:21:39;;;;;;;;;7.00;6.00;20.30;81.70;;;19.22;62.75;101926.03;5021147;28;8782;-52
2021/01/17 06:24:08;;;;;;;;;7.00;7.00;20.30;81.70;;;19.21;62.75;101921.63;5021836;28;8927;-51
2021/01/17 06:26:40;;;;;;;;;6.00;5.25;20.20;81.60;;;19.21;62.97;101925.19;5015685;28;8921;-51
2021/01/17 06:29:10;;;;;;;;;7.50;6.25;20.10;81.50;;;19.19;62.66;101918.25;5025024;28;8802;-52
2021/01/17 06:31:38;;;;;;;;;5.50;5.50;20.20;81.60;;;19.17;62.81;101921.06;5027801;28;8798;-49
2021/01/17 06:34:14;;;;;;;;;6.75;6.00;20.20;81.50;;;19.17;62.85;101918.38;5031106;28;8786;-49
2021/01/17 06:36:43;;;;;;;;;6.50;6.50;20.20;81.60;;;19.17;62.78;101922.88;5018441;28;8891;-49
2021/01/17 06:39:26;;;;;;;;;3.25;3.25;20.40;81.70;;;19.15;62.64;101922.16;5030552;28;8854;-49
2021/01/17 06:41:57;;;;;;;;;6.25;5.00;20.20;82.10;;;19.14;62.73;101918.63;5020517;28;8823;-51
2021/01/17 06:44:33;;;;;;;;;4.00;4.00;20.40;81.70;;;19.15;62.73;101927.50;5025780;28;8788;-53
2021/01/17 06:47:01;;;;;;;;;6.00;5.00;20.20;81.50;;;19.14;62.55;101923.16;5020858;28;8806;-51
2021/01/17 06:49:35;;;;;;;;;4.00;4.00;20.30;81.50;;;19.12;62.66;101920.59;5024695;28;8820;-51
2021/01/17 06:52:08;;;;;;;;;7.00;6.00;20.10;81.30;;;19.12;62.67;101919.75;5028962;28;8810;-53
2021/01/17 06:54:39;;;;;;;;;7.00;6.00;20.20;82.10;;;19.12;62.55;101928.63;5011859;28;8798;-51
2021/01/17 06:57:07;;;;;;;;;6.25;6.00;20.20;81.50;;;19.10;62.69;101922.53;5025507;28;9372;-51
2021/01/17 06:59:37;;;;;;;;;4.75;4.75;20.20;81.50;;;19.10;62.59;101922.53;5025580;28;8885;-47
2021/01/17 07:02:16;;;;;;;;;6.25;6.25;20.10;81.40;;;19.07;62.50;101920.97;5029164;28;8832;-51
2021/01/17 07:05:13;;;;;;;;;4.75;4.75;20.00;81.40;;;19.08;62.47;101925.38;5026509;28;8780;-51
2021/01/17 07:08:01;;;;;;;;;2.00;2.00;20.10;81.40;;;19.06;62.53;101919.28;5020719;28;8820;-52
2021/01/17 07:10:42;;;;;;;;;5.00;5.00;19.90;81.20;;;19.07;62.57;101925.47;5029548;28;8807;-53
2021/01/17 07:13:14;;;;;;;;;6.00;4.00;20.10;81.40;;;19.05;62.56;101922.06;5026362;28;8814;-53
2021/01/17 07:15:43;;;;;;;;;5.25;4.50;20.10;81.30;;;19.04;62.76;101920.38;5024891;28;8881;-52
2021/01/17 07:18:16;;;;;;;;;5.25;4.25;19.90;81.30;;;19.03;62.55;101924.03;5027705;28;8843;-50
2021/01/17 07:20:49;;;;;;;;;4.00;4.00;20.00;81.40;;;19.02;62.44;101917.84;5028224;28;8831;-52
2021/01/17 07:23:19;;;;;;;;;2.00;2.00;19.90;81.20;;;19.02;62.55;101922.34;5029533;28;8782;-50
2021/01/17 07:25:49;;;;;;;;;5.00;5.00;19.90;81.30;;;19.01;62.46;101921.50;5023315;28;8792;-50
2021/01/17 07:28:18;;;;;;;;;4.75;3.00;20.10;81.40;;;19.00;62.50;101910.91;5025457;28;8813;-51
2021/01/17 07:30:51;;;;;;;;;4.25;4.25;20.00;81.30;;;19.00;62.59;101908.22;5017414;28;8952;-51
2021/01/17 07:33:30;;;;;;;;;3.00;3.00;19.80;81.10;;;18.99;62.49;101911.91;5018533;28;9625;-51
2021/01/17 07:36:18;;;;;;;;;5.00;4.50;20.00;81.30;;;18.99;62.52;101923.44;5018733;28;8882;-51
2021/01/17 07:38:55;;;;;;;;;5.00;4.00;20.00;81.20;;;18.99;62.38;101923.44;5020675;28;8812;-53
2021/01/17 07:41:29;;;;;;;;;3.00;3.00;20.00;81.20;;;18.97;62.38;101927.22;5021294;28;8786;-46
2021/01/17 07:43:59;;;;;;;;;4.50;4.00;20.00;81.20;;;18.96;62.47;101917.50;5021885;28;9938;-53
2021/01/17 07:46:32;;;;;;;;;5.00;5.00;20.00;81.10;;;18.94;62.62;101922.97;5010955;28;8888;-49
2021/01/17 07:49:03;;;;;;;;;4.00;4.00;20.00;81.00;;;18.93;62.25;101912.38;5028001;28;8802;-52
2021/01/17 07:51:30;;;;;;;;;1.75;1.75;19.90;81.10;;;18.93;62.32;101894.53;5023796;28;8835;-53
2021/01/17 07:54:28;;;;;;;;;4.50;4.00;20.00;81.00;;;18.92;61.99;101908.03;4996349;28;8825;-52
2021/01/17 07:56:55;;;;;;;;;6.25;4.00;20.00;80.80;;;18.92;61.91;101900.00;5031169;28;8783;-52
2021/01/17 07:59:27;;;;;;;;;4.00;4.00;20.00;80.60;;;18.90;61.96;101901.94;5020081;28;8833;-54
2021/01/17 08:01:56;;;;;;;;;2.75;2.75;20.10;80.60;;;18.89;61.74;101885.03;5019738;28;9626;-54
2021/01/17 08:04:24;;;;;;;;;4.00;3.50;19.80;80.50;;;18.89;61.77;101890.38;5021336;28;8788;-50
2021/01/17 08:06:57;;;;;;;;;6.00;5.00;20.00;80.50;;;18.87;61.73;101887.81;5026419;28;8790;-53
2021/01/17 08:09:46;;;;;;;;;3.25;2.75;19.90;80.50;;;18.89;61.61;101892.22;5020840;28;8789;-51
2021/01/17 08:12:41;;;;;;;;;3.50;3.25;20.00;80.40;;;18.88;61.63;101891.38;5018516;28;8928;-51
2021/01/17 08:15:12;;;;;;;;;5.00;3.00;19.70;80.10;;;18.86;61.68;101886.13;5017175;28;8895;-54
2021/01/17 08:17:39;;;;;;;;;5.00;4.25;20.10;80.50;;;18.86;61.68;101888.81;5025783;28;8834;-52
2021/01/17 08:20:08;;;;;;;;;3.50;2.75;20.00;80.20;;;18.84;61.49;101882.75;5044809;28;8865;-51
2021/01/17 08:22:35;;;;;;;;;4.75;3.75;20.20;80.30;;;18.84;61.76;101888.09;5046348;28;9609;-52
2021/01/17 08:25:07;;;;;;;;;3.00;3.00;20.20;80.10;;;18.85;61.83;101880.91;5034157;28;8810;-51
2021/01/17 08:27:36;;;;;;;;;5.00;5.00;20.00;79.70;;;18.84;61.99;101885.41;5032294;28;8893;-52
2021/01/17 08:32:36;;;;;;;;;4.50;4.50;19.90;79.50;;;18.82;62.11;101894.56;5027932;28;8815;-51
2021/01/17 08:35:30;;;;;;;;;3.50;3.50;20.00;79.70;;;18.81;62.03;101892.88;5035404;28;8791;-51
2021/01/17 08:38:13;;;;;;;;;4.75;4.75;19.90;79.70;;;18.80;62.09;101889.34;5036391;28;8814;-52
2021/01/17 08:40:47;;;;;;;;;3.25;3.25;20.00;79.70;;;18.81;61.97;101896.38;5013123;28;8890;-54
2021/01/17 08:43:17;;;;;;;;;3.75;3.75;20.00;79.80;;;18.80;62.00;101877.75;5034754;28;8775;-50
2021/01/17 08:45:50;;;;;;;;;3.00;3.00;20.00;79.70;;;18.79;62.06;101876.06;5036675;28;8817;-52
2021/01/17 08:48:17;;;;;;;;;4.00;3.50;20.00;79.70;;;18.78;62.22;101879.75;5037269;28;8914;-50
2021/01/17 08:51:12;;;;;;;;;4.00;3.00;20.10;79.90;;;18.77;62.11;101870.84;5016444;28;8827;-53
2021/01/17 08:53:39;;;;;;;;;4.00;3.75;20.00;79.90;;;18.77;61.98;101884.22;5015803;28;8800;-53
2021/01/17 08:56:15;;;;;;;;;4.75;4.00;20.00;79.80;;;18.78;62.04;101877.91;5040917;28;8792;-49
2021/01/17 08:58:44;;;;;;;;;3.00;3.00;19.90;79.80;;;18.75;62.21;101883.53;5024766;28;8941;-53
2021/01/17 09:01:16;;;;;;;;;3.00;3.00;20.00;79.80;;;18.75;62.14;101890.66;5026223;28;8780;-48
2021/01/17 09:03:43;;;;;;;;;2.75;2.50;20.00;79.60;;;18.74;62.21;101886.28;5027230;28;8875;-52
2021/01/17 09:06:13;;;;;;;;;4.00;3.00;19.90;79.70;;;18.73;62.25;101885.44;5025547;28;8820;-52
2021/01/17 09:08:49;;;;;;;;;3.75;3.00;20.00;79.80;;;18.73;62.24;101887.28;5028572;28;8814;-52
2021/01/17 09:11:37;;;;;;;;;3.00;2.75;20.10;79.70;;;18.72;62.21;101891.75;5032020;28;8791;-50
2021/01/17 09:14:29;;;;;;;;;4.25;3.25;20.20;79.80;;;18.72;62.28;101886.41;5034873;28;8954;-52
2021/01/17 09:17:08;;;;;;;;;3.25;3.00;19.90;79.70;;;18.72;62.06;101893.59;5030976;28;8883;-50
2021/01/17 09:19:37;;;;;;;;;3.00;3.00;19.90;79.80;;;18.71;62.29;101894.56;5015491;28;8801;-51
2021/01/17 09:22:07;;;;;;;;;4.75;3.50;19.90;79.70;;;18.69;62.10;101885.81;5028463;28;9480;-50
2021/01/17 09:24:38;;;;;;;;;3.00;3.00;20.00;79.80;;;18.69;62.30;101897.38;5036122;28;8774;-50
2021/01/17 09:27:09;;;;;;;;;3.00;3.00;20.00;79.90;;;18.69;62.26;101896.53;5018126;28;8918;-53
2021/01/17 09:29:41;;;;;;;;;3.00;2.75;19.70;79.70;;;18.67;62.12;101899.31;5022018;28;8832;-49
2021/01/17 09:32:13;;;;;;;;;4.00;3.00;19.90;79.70;;;18.67;62.11;101902.00;5018001;28;8885;-51
2021/01/17 09:34:47;;;;;;;;;3.25;3.25;19.70;79.70;;;18.65;62.15;101898.63;5027251;28;8804;-53
2021/01/17 09:37:17;;;;;;;;;1.25;1.00;19.90;79.70;;;18.65;62.14;101904.81;5035556;28;8831;-52
2021/01/17 09:39:53;;;;;;;;;4.00;3.00;19.80;79.60;;;18.65;62.15;101906.66;5038102;28;8784;-54
2021/01/17 09:42:24;;;;;;;;;2.00;2.00;20.00;79.90;;;18.65;62.31;101917.34;5023508;28;8848;-52
2021/01/17 09:44:58;;;;;;;;;3.25;2.50;19.90;79.70;;;18.63;62.38;101920.13;5029508;28;8786;-50
2021/01/17 09:47:27;;;;;;;;;4.00;3.00;20.00;79.70;;;18.62;62.37;101917.56;5031788;28;8798;-50
2021/01/17 09:49:55;;;;;;;;;3.00;3.00;19.80;79.50;;;18.61;62.37;101919.41;5015730;28;8792;-48
2021/01/17 09:52:25;;;;;;;;;3.25;3.00;19.90;79.60;;;18.60;62.39;101914.19;5018549;28;8851;-50
2021/01/17 09:54:54;;;;;;;;;5.00;1.75;19.80;79.60;;;18.62;62.22;101921.13;5031255;28;8878;-49
2021/01/17 09:57:24;;;;;;;;;2.25;2.25;20.00;79.90;;;18.61;62.26;101918.56;5038398;28;8833;-52
2021/01/17 09:59:55;;;;;;;;;2.50;2.00;19.80;79.80;;;18.59;62.23;101915.16;5026537;28;9593;-51
2021/01/17 10:02:24;;;;;;;;;3.00;3.00;20.00;79.70;;;18.60;62.29;101919.56;5021060;28;8767;-48
2021/01/17 10:04:52;;;;;;;;;2.00;2.00;19.90;79.70;;;18.58;62.38;101929.53;5021489;28;8761;-52
2021/01/17 10:07:22;;;;;;;;;2.00;1.75;19.80;79.50;;;18.56;62.35;101924.28;5028082;28;8801;-47
2021/01/17 10:09:50;;;;;;;;;2.00;1.00;19.80;79.50;;;18.56;62.48;101924.28;5020560;28;8814;-51
2021/01/17 10:12:24;;;;;;;;;2.00;2.00;19.90;79.70;;;18.56;62.59;101923.44;5021314;28;8793;-48
2021/01/17 10:14:52;;;;;;;;;5.00;4.50;19.90;79.70;;;18.55;62.51;101927.13;5026135;28;9556;-50
2021/01/17 10:17:19;;;;;;;;;4.50;2.75;19.70;79.70;;;18.54;62.61;101930.75;5027890;28;8947;-49
2021/01/17 10:19:47;;;;;;;;;3.00;2.50;19.80;79.80;;;18.54;62.57;101931.59;5028740;28;8824;-49
2021/01/17 10:22:17;;;;;;;;;2.25;2.25;19.80;79.90;;;18.52;62.51;101916.63;5028556;28;8835;-50
2021/01/17 10:24:44;;;;;;;;;2.00;1.50;19.80;80.00;;;18.53;62.74;101919.19;5024924;28;8929;-50
2021/01/17 10:27:15;;;;;;;;;4.00;1.75;19.60;80.20;;;18.53;62.74;101929.06;5034546;28;8825;-53
2021/01/17 10:29:43;;;;;;;;;3.00;3.00;19.70;80.00;;;18.52;62.82;101943.38;5021172;28;8791;-49
2021/01/17 10:32:15;;;;;;;;;3.00;2.25;19.90;80.10;;;18.49;62.58;101923.09;5018786;28;8958;-52
2021/01/17 10:34:49;;;;;;;;;2.00;2.00;19.70;80.00;;;18.48;62.52;101920.56;5027510;28;8845;-49
2021/01/17 10:37:20;;;;;;;;;3.00;3.00;19.70;80.00;;;18.48;62.52;101926.75;5032577;28;8884;-51
2021/01/17 10:39:46;;;;;;;;;1.50;1.00;19.70;80.00;;;18.47;62.58;101913.47;5040077;28;8794;-47
2021/01/17 10:42:29;;;;;;;;;3.25;3.25;19.50;80.00;;;18.46;62.50;101920.66;5014275;28;8785;-48